Time;durP1;ratioP1;P1;durP2;ratioP2;P2;SDS_P1;SDS_P2;PMS_P1;PMS_P2;Temp;Humidity;BMP_temperature;BMP_pressure;BME280_temperature;BME280_humidity;BME280_pressure;Samples;Min_cycle;Max_cycle;Signal;HPM_P1;HPM_P2
2022/10/07 00:00:58;;;;;;;5.15;1.73;;;9.70;99.90;;;;;;4991640;28;20050;-39
2022/10/07 00:03:26;;;;;;;6.30;1.55;;;9.60;99.90;;;;;;4988850;28;20408;-37
2022/10/07 00:06:09;;;;;;;5.32;1.92;;;9.60;99.90;;;;;;4989356;28;20050;-37
2022/10/07 00:08:37;;;;;;;5.82;1.30;;;9.60;99.90;;;;;;4988743;28;20062;-37
2022/10/07 00:11:11;;;;;;;10.38;1.90;;;9.60;99.90;;;;;;4989023;28;20085;-39
2022/10/07 00:13:39;;;;;;;4.55;1.30;;;9.60;99.90;;;;;;4956523;28;20053;-39
2022/10/07 00:16:10;;;;;;;5.30;1.45;;;9.50;99.90;;;;;;4991000;28;20121;-38
2022/10/07 00:18:37;;;;;;;4.63;1.17;;;9.50;99.90;;;;;;4988510;28;20072;-38
2022/10/07 00:21:08;;;;;;;5.70;1.50;;;9.50;99.90;;;;;;4988143;28;20053;-38
2022/10/07 00:23:34;;;;;;;6.47;1.45;;;9.40;99.90;;;;;;4984929;28;20496;-38
2022/10/07 00:26:05;;;;;;;5.65;1.23;;;9.40;99.90;;;;;;4986618;28;20030;-37
2022/10/07 00:28:32;;;;;;;6.25;1.23;;;9.40;99.90;;;;;;4985997;28;20078;-36
2022/10/07 00:31:21;;;;;;;6.75;1.80;;;9.40;99.90;;;;;;4986704;28;20042;-39
2022/10/07 00:33:48;;;;;;;6.13;2.53;;;9.30;99.90;;;;;;4986401;28;20082;-37
2022/10/07 00:36:19;;;;;;;4.80;1.38;;;9.30;99.90;;;;;;4982948;28;20042;-37
2022/10/07 00:38:54;;;;;;;4.43;1.25;;;9.30;99.90;;;;;;4988328;28;20037;-38
2022/10/07 00:41:30;;;;;;;12.85;1.60;;;9.30;99.90;;;;;;4989455;28;20499;-36
2022/10/07 00:43:56;;;;;;;7.18;1.40;;;9.30;99.90;;;;;;4987424;28;20492;-38
2022/10/07 00:46:38;;;;;;;5.90;1.63;;;9.40;99.90;;;;;;4989654;28;20541;-38
2022/10/07 00:49:11;;;;;;;6.28;1.23;;;9.30;99.90;;;;;;4987704;28;20046;-38
2022/10/07 00:51:37;;;;;;;4.93;1.30;;;9.30;99.90;;;;;;4985446;28;20045;-37
2022/10/07 00:54:08;;;;;;;4.70;1.50;;;9.30;99.90;;;;;;4985469;28;20420;-38
2022/10/07 00:56:34;;;;;;;6.95;1.50;;;9.30;99.90;;;;;;4987739;28;20196;-37
2022/10/07 00:59:00;;;;;;;8.75;1.58;;;9.30;99.90;;;;;;4988763;28;20129;-37
2022/10/07 01:01:26;;;;;;;4.32;1.35;;;9.30;99.90;;;;;;4989046;28;20053;-37
2022/10/07 01:03:53;;;;;;;6.18;1.70;;;9.20;99.90;;;;;;4986265;28;20042;-37
2022/10/07 01:06:18;;;;;;;7.38;1.20;;;9.20;99.90;;;;;;4988964;28;20042;-38
2022/10/07 01:08:47;;;;;;;8.40;1.42;;;9.20;99.90;;;;;;4985420;28;20071;-37
2022/10/07 01:11:38;;;;;;;8.43;1.70;;;9.20;99.90;;;;;;4962936;28;20039;-36
2022/10/07 01:14:28;;;;;;;5.68;1.65;;;9.20;99.90;;;;;;4986557;28;20038;-37
2022/10/07 01:17:20;;;;;;;4.90;1.30;;;9.10;99.90;;;;;;4986330;28;20042;-38
2022/10/07 01:20:10;;;;;;;5.28;1.55;;;9.10;99.90;;;;;;4981521;28;20527;-37
2022/10/07 01:23:11;;;;;;;4.70;1.40;;;9.10;99.90;;;;;;4980315;28;20042;-35
2022/10/07 01:25:56;;;;;;;8.88;1.98;;;9.10;99.90;;;;;;4980245;28;20129;-37
2022/10/07 01:28:46;;;;;;;6.28;1.40;;;9.00;99.90;;;;;;4981389;28;20038;-37
2022/10/07 01:31:16;;;;;;;7.30;1.20;;;9.00;99.90;;;;;;4971607;28;20046;-37
2022/10/07 01:33:44;;;;;;;7.05;1.73;;;9.00;99.90;;;;;;4984974;28;20535;-36
2022/10/07 01:36:14;;;;;;;7.43;1.65;;;8.90;99.90;;;;;;4985509;28;20050;-37
2022/10/07 01:38:48;;;;;;;10.63;1.73;;;8.90;99.90;;;;;;4987507;28;20046;-37
2022/10/07 01:41:18;;;;;;;6.30;1.85;;;8.90;99.90;;;;;;4982648;28;20065;-37
2022/10/07 01:43:46;;;;;;;5.20;1.77;;;8.80;99.90;;;;;;4970666;28;20054;-37
2022/10/07 01:46:21;;;;;;;5.38;1.70;;;8.80;99.90;;;;;;4986587;28;20542;-37
2022/10/07 01:48:47;;;;;;;2.10;1.08;;;8.80;99.90;;;;;;4978122;28;20157;-36
2022/10/07 01:51:15;;;;;;;3.20;1.48;;;8.70;99.90;;;;;;4985849;28;20031;-37
2022/10/07 01:54:16;;;;;;;10.30;2.55;;;8.70;99.90;;;;;;4987876;28;20049;-38
2022/10/07 01:57:00;;;;;;;6.35;1.85;;;8.60;99.90;;;;;;4984560;28;20121;-37
2022/10/07 01:59:38;;;;;;;5.45;1.38;;;8.60;99.90;;;;;;4986287;28;20385;-37
2022/10/07 02:02:21;;;;;;;7.75;1.83;;;8.50;99.90;;;;;;4972132;28;20145;-38
2022/10/07 02:04:57;;;;;;;8.68;1.73;;;8.50;99.90;;;;;;4978813;28;20384;-36
2022/10/07 02:07:37;;;;;;;9.23;1.92;;;8.40;99.90;;;;;;4988924;28;20404;-39
2022/10/07 02:10:14;;;;;;;8.25;1.73;;;8.40;99.90;;;;;;4984812;28;20054;-37
2022/10/07 02:13:02;;;;;;;8.23;1.90;;;8.30;99.90;;;;;;4984104;28;20122;-37
2022/10/07 02:15:53;;;;;;;7.25;2.03;;;8.30;99.90;;;;;;4979819;28;20042;-36
2022/10/07 02:18:19;;;;;;;8.90;1.40;;;8.30;99.90;;;;;;4981768;28;20038;-37
2022/10/07 02:20:49;;;;;;;10.23;2.15;;;8.30;99.90;;;;;;4987356;28;20046;-36
2022/10/07 02:23:17;;;;;;;6.43;1.75;;;8.30;99.90;;;;;;4975209;28;20542;-35
2022/10/07 02:25:48;;;;;;;5.90;1.70;;;8.30;99.90;;;;;;4981728;28;20034;-37
2022/10/07 02:28:17;;;;;;;6.15;2.40;;;8.30;99.90;;;;;;4978893;28;20038;-37
2022/10/07 02:30:48;;;;;;;6.97;1.70;;;8.30;99.90;;;;;;4979364;28;20518;-38
2022/10/07 02:33:15;;;;;;;4.15;1.52;;;8.40;99.90;;;;;;4987398;28;20049;-37
2022/10/07 02:35:48;;;;;;;12.00;1.98;;;8.40;99.90;;;;;;4979199;28;20054;-37
2022/10/07 02:38:17;;;;;;;5.38;1.88;;;8.40;99.90;;;;;;4982998;28;20125;-37
2022/10/07 02:41:31;;;;;;;7.28;2.20;;;8.40;99.90;;;;;;4987061;28;20507;-37
2022/10/07 02:44:08;;;;;;;8.32;1.95;;;8.40;99.90;;;;;;4979477;28;20499;-36
2022/10/07 02:46:42;;;;;;;8.98;1.85;;;8.40;99.90;;;;;;4987212;28;20070;-37
2022/10/07 02:49:13;;;;;;;4.97;2.22;;;8.40;99.90;;;;;;4985524;28;20037;-38
2022/10/07 02:51:45;;;;;;;9.82;1.63;;;8.50;99.90;;;;;;4987594;28;20414;-38
2022/10/07 02:54:15;;;;;;;7.93;1.48;;;8.50;99.90;;;;;;4986223;28;20121;-37
2022/10/07 02:56:42;;;;;;;6.32;2.33;;;8.50;99.90;;;;;;4989579;28;20392;-37
2022/10/07 02:59:10;;;;;;;7.78;1.77;;;8.50;99.90;;;;;;4978655;28;20040;-37
2022/10/07 03:01:45;;;;;;;7.18;1.70;;;8.50;99.90;;;;;;4990909;28;20045;-37
2022/10/07 03:04:11;;;;;;;7.82;2.15;;;8.50;99.90;;;;;;4988529;28;20049;-37
2022/10/07 03:06:37;;;;;;;4.40;1.50;;;8.50;99.90;;;;;;4988439;28;20196;-36
2022/10/07 03:09:03;;;;;;;7.60;1.40;;;8.60;99.90;;;;;;4991590;28;20117;-38
2022/10/07 03:11:29;;;;;;;6.20;1.35;;;8.50;99.90;;;;;;4994872;28;20100;-37
2022/10/07 03:13:56;;;;;;;8.90;1.85;;;8.60;99.90;;;;;;4990017;28;20038;-37
2022/10/07 03:16:21;;;;;;;7.68;1.45;;;8.50;99.90;;;;;;4988433;28;20049;-38
2022/10/07 03:18:47;;;;;;;6.57;1.65;;;8.60;99.90;;;;;;4972951;28;20408;-37
2022/10/07 03:21:12;;;;;;;4.35;1.38;;;8.50;99.90;;;;;;4990554;28;20064;-39
2022/10/07 03:23:38;;;;;;;7.63;1.67;;;8.50;99.90;;;;;;4987031;28;20388;-37
2022/10/07 03:26:04;;;;;;;6.63;2.28;;;8.50;99.90;;;;;;4991798;28;20038;-36
2022/10/07 03:28:34;;;;;;;7.10;1.55;;;8.50;99.90;;;;;;4988091;28;20038;-37
2022/10/07 03:31:06;;;;;;;9.52;1.75;;;8.60;99.90;;;;;;4987598;28;20658;-38
2022/10/07 03:33:31;;;;;;;7.15;2.00;;;8.60;99.90;;;;;;4990750;28;20042;-38
2022/10/07 03:35:57;;;;;;;6.25;1.65;;;8.60;99.90;;;;;;4989680;28;20042;-37
2022/10/07 03:38:22;;;;;;;8.27;1.83;;;8.60;99.90;;;;;;4972171;28;20125;-37
2022/10/07 03:40:48;;;;;;;6.65;1.58;;;8.60;99.90;;;;;;4991019;28;20061;-38
2022/10/07 03:43:14;;;;;;;5.95;1.98;;;8.60;99.90;;;;;;4990210;28;20408;-37
2022/10/07 03:45:44;;;;;;;6.13;1.90;;;8.60;99.90;;;;;;4986824;28;20096;-37
2022/10/07 03:48:10;;;;;;;10.07;2.08;;;8.60;99.90;;;;;;4989690;28;20117;-38
2022/10/07 03:50:36;;;;;;;11.52;1.92;;;8.60;99.90;;;;;;4986499;28;20064;-37
2022/10/07 03:53:03;;;;;;;5.47;1.70;;;8.60;99.90;;;;;;4989493;28;20057;-37
2022/10/07 03:55:29;;;;;;;6.40;1.77;;;8.60;99.90;;;;;;4989129;28;20046;-38
2022/10/07 03:57:56;;;;;;;9.77;2.38;;;8.60;99.90;;;;;;4984005;28;20489;-39
2022/10/07 04:00:24;;;;;;;7.35;1.77;;;8.60;99.90;;;;;;4988290;28;20475;-38
2022/10/07 04:02:50;;;;;;;9.38;1.80;;;8.50;99.90;;;;;;4987959;28;20372;-39
2022/10/07 04:05:18;;;;;;;7.38;1.77;;;8.50;99.90;;;;;;4984021;28;20109;-38
2022/10/07 04:07:48;;;;;;;7.25;2.55;;;8.40;99.90;;;;;;4987483;28;20034;-37
2022/10/07 04:10:15;;;;;;;7.90;1.60;;;8.40;99.90;;;;;;4991181;28;20117;-37
2022/10/07 04:12:42;;;;;;;7.53;1.60;;;8.30;99.90;;;;;;4988124;28;20042;-38
2022/10/07 04:15:12;;;;;;;7.70;2.10;;;8.30;99.90;;;;;;4988891;28;20045;-39
2022/10/07 04:17:42;;;;;;;7.32;1.58;;;8.30;99.90;;;;;;4988144;28;20117;-37
2022/10/07 04:20:09;;;;;;;10.60;2.50;;;8.30;99.90;;;;;;4992386;28;20109;-37
2022/10/07 04:22:35;;;;;;;8.15;2.15;;;8.30;99.90;;;;;;4986970;28;20112;-36
2022/10/07 04:27:53;;;;;;;10.38;1.80;;;8.30;99.90;;;;;;4992273;28;20514;-37
2022/10/07 04:30:20;;;;;;;7.50;2.08;;;8.30;99.90;;;;;;4986385;28;20140;-37
2022/10/07 04:32:48;;;;;;;5.50;1.60;;;8.30;99.90;;;;;;4991328;28;20038;-36
2022/10/07 04:35:14;;;;;;;8.80;2.20;;;8.30;99.90;;;;;;4988652;28;20048;-37
2022/10/07 04:37:40;;;;;;;8.93;1.77;;;8.40;99.90;;;;;;4991831;28;20042;-37
2022/10/07 04:40:07;;;;;;;7.47;2.13;;;8.40;99.90;;;;;;4989047;28;20518;-36
2022/10/07 04:45:17;;;;;;;11.77;2.17;;;8.40;99.90;;;;;;4985398;28;20465;-37
2022/10/07 04:47:44;;;;;;;12.32;2.60;;;8.40;99.90;;;;;;4993763;28;20069;-37
2022/10/07 04:50:10;;;;;;;10.45;2.15;;;8.50;99.90;;;;;;4984430;28;20034;-37
2022/10/07 04:52:39;;;;;;;9.63;2.10;;;8.50;99.90;;;;;;5002953;28;20034;-36
2022/10/07 04:55:05;;;;;;;8.68;1.95;;;8.50;99.90;;;;;;4988125;28;20105;-37
2022/10/07 04:57:31;;;;;;;9.60;2.75;;;8.50;99.90;;;;;;4988219;28;20050;-36
2022/10/07 04:59:57;;;;;;;13.00;2.08;;;8.50;99.90;;;;;;4990118;28;20427;-36
2022/10/07 05:02:22;;;;;;;12.10;2.70;;;8.50;99.90;;;;;;4989152;28;20038;-37
2022/10/07 05:04:48;;;;;;;6.82;1.70;;;8.50;99.90;;;;;;4990387;28;20603;-37
2022/10/07 05:07:15;;;;;;;9.85;2.03;;;8.50;99.90;;;;;;4994614;28;20411;-37
2022/10/07 05:09:40;;;;;;;9.88;1.95;;;8.50;99.90;;;;;;4998920;28;20045;-35
2022/10/07 05:12:06;;;;;;;10.18;2.45;;;8.50;99.90;;;;;;4995795;28;20042;-35
2022/10/07 05:14:32;;;;;;;12.75;2.60;;;8.40;99.90;;;;;;4988293;28;20423;-35
2022/10/07 05:16:58;;;;;;;10.80;1.98;;;8.40;99.90;;;;;;4994587;28;20087;-34
2022/10/07 05:19:24;;;;;;;9.63;2.45;;;8.40;99.90;;;;;;4975211;28;20442;-34
2022/10/07 05:21:50;;;;;;;10.50;2.65;;;8.40;99.90;;;;;;4987405;28;21412;-35
2022/10/07 05:24:16;;;;;;;14.80;2.88;;;8.40;99.90;;;;;;4987159;28;20042;-34
2022/10/07 05:26:42;;;;;;;10.98;2.40;;;8.40;99.90;;;;;;4993133;28;20046;-35
2022/10/07 05:29:08;;;;;;;8.05;1.98;;;8.40;99.90;;;;;;4980462;28;20121;-34
2022/10/07 05:31:34;;;;;;;7.35;2.10;;;8.40;99.90;;;;;;4990010;28;20142;-35
2022/10/07 05:34:00;;;;;;;8.23;2.88;;;8.40;99.90;;;;;;4968164;28;20038;-36
2022/10/07 05:36:26;;;;;;;10.07;2.28;;;8.40;99.90;;;;;;4983304;28;20069;-36
2022/10/07 05:38:57;;;;;;;5.03;2.03;;;8.40;99.90;;;;;;4989026;28;20162;-34
2022/10/07 05:41:23;;;;;;;7.57;2.20;;;8.40;99.90;;;;;;4991894;28;20508;-34
2022/10/07 05:43:49;;;;;;;8.05;2.40;;;8.40;99.90;;;;;;4990060;28;20068;-35
2022/10/07 05:46:17;;;;;;;6.78;2.47;;;8.40;99.90;;;;;;4977336;28;20042;-37
2022/10/07 05:48:50;;;;;;;6.43;2.10;;;8.40;99.90;;;;;;4984232;28;20498;-37
2022/10/07 05:51:17;;;;;;;9.60;2.55;;;8.40;99.90;;;;;;4980135;28;20077;-36
2022/10/07 05:53:45;;;;;;;7.38;2.00;;;8.40;99.90;;;;;;4994402;28;20038;-36
2022/10/07 05:56:20;;;;;;;11.18;2.72;;;8.40;99.90;;;;;;4990372;28;20450;-36
2022/10/07 05:58:47;;;;;;;8.90;2.30;;;8.40;99.90;;;;;;4984176;28;20030;-36
2022/10/07 06:01:15;;;;;;;9.77;3.30;;;8.40;99.90;;;;;;4990058;28;20038;-36
2022/10/07 06:03:42;;;;;;;10.10;2.85;;;8.30;99.90;;;;;;4979128;28;20500;-37
2022/10/07 06:06:08;;;;;;;6.88;2.20;;;8.30;99.90;;;;;;4984143;28;20480;-37
2022/10/07 06:08:35;;;;;;;9.57;2.42;;;8.30;99.90;;;;;;4977758;28;20042;-37
2022/10/07 06:13:48;;;;;;;12.20;2.65;;;8.40;99.90;;;;;;4985991;28;20110;-37
2022/10/07 06:16:13;;;;;;;12.02;2.90;;;8.40;99.90;;;;;;4985217;28;20034;-36
2022/10/07 06:18:39;;;;;;;10.90;2.30;;;8.40;99.90;;;;;;4985011;28;20621;-37
2022/10/07 06:21:05;;;;;;;6.47;1.90;;;8.40;99.90;;;;;;4988702;28;20109;-36
2022/10/07 06:23:32;;;;;;;9.77;2.45;;;8.50;99.90;;;;;;4981190;28;20042;-36
2022/10/07 06:26:04;;;;;;;8.43;2.15;;;8.50;99.90;;;;;;4982591;28;20038;-36
2022/10/07 06:28:35;;;;;;;7.45;2.17;;;8.50;99.90;;;;;;4981141;28;20030;-36
2022/10/07 06:31:28;;;;;;;9.00;2.23;;;8.60;99.90;;;;;;4987875;28;20030;-35
2022/10/07 06:33:53;;;;;;;12.47;4.17;;;8.70;99.90;;;;;;4982322;28;20115;-40
2022/10/07 06:36:19;;;;;;;11.68;3.72;;;8.70;99.90;;;;;;4982475;28;20027;-36
2022/10/07 06:38:49;;;;;;;11.77;3.30;;;8.80;99.90;;;;;;4984250;28;20042;-36
2022/10/07 06:41:15;;;;;;;11.20;3.47;;;8.80;99.90;;;;;;4979048;28;20034;-35
2022/10/07 06:43:41;;;;;;;6.28;2.15;;;8.90;99.90;;;;;;4986301;28;20038;-36
2022/10/07 06:46:12;;;;;;;8.48;2.13;;;8.90;99.90;;;;;;4981543;28;20531;-36
2022/10/07 06:48:40;;;;;;;8.43;1.98;;;9.00;99.90;;;;;;4983550;28;20103;-34
2022/10/07 06:51:07;;;;;;;9.43;1.73;;;9.10;99.90;;;;;;4982558;28;20038;-35
2022/10/07 06:53:33;;;;;;;9.50;2.47;;;9.10;99.90;;;;;;4982461;28;20035;-35
2022/10/07 06:56:03;;;;;;;15.35;2.45;;;9.20;99.90;;;;;;4987083;28;20420;-35
2022/10/07 06:58:29;;;;;;;14.07;2.70;;;9.20;99.90;;;;;;4987856;28;20069;-35
2022/10/07 07:00:56;;;;;;;12.27;2.42;;;9.30;99.90;;;;;;4990278;28;20069;-35
2022/10/07 07:03:23;;;;;;;12.55;2.97;;;9.40;99.90;;;;;;4986638;28;20046;-35
2022/10/07 07:05:50;;;;;;;7.05;2.00;;;9.40;99.90;;;;;;4984008;28;20099;-34
2022/10/07 07:08:17;;;;;;;12.57;2.97;;;9.50;99.90;;;;;;4980011;28;20053;-35
2022/10/07 07:10:44;;;;;;;11.40;2.72;;;9.60;99.90;;;;;;4976400;28;20400;-35
2022/10/07 07:13:10;;;;;;;11.00;1.80;;;9.60;99.90;;;;;;4981231;28;20031;-36
2022/10/07 07:15:39;;;;;;;25.85;5.07;;;9.70;99.90;;;;;;4963991;28;20074;-37
2022/10/07 07:18:07;;;;;;;6.35;1.95;;;9.70;99.90;;;;;;4984298;28;20039;-35
2022/10/07 07:20:36;;;;;;;10.10;2.90;;;9.80;99.90;;;;;;4981423;28;20121;-36
2022/10/07 07:23:07;;;;;;;8.02;2.38;;;9.90;99.90;;;;;;4979750;28;20150;-35
2022/10/07 07:25:37;;;;;;;11.32;2.38;;;9.90;99.90;;;;;;4983530;28;20129;-35
2022/10/07 07:28:05;;;;;;;8.15;1.88;;;9.90;99.90;;;;;;4982183;28;20046;-37
2022/10/07 07:30:31;;;;;;;8.32;2.05;;;10.00;99.90;;;;;;4983539;28;20488;-35
2022/10/07 07:32:57;;;;;;;9.32;1.98;;;10.10;99.90;;;;;;4987103;28;20041;-34
2022/10/07 07:35:29;;;;;;;17.85;2.95;;;10.10;99.90;;;;;;4985804;28;20042;-36
2022/10/07 07:37:55;;;;;;;6.43;2.25;;;10.20;99.90;;;;;;4988218;28;20519;-36
2022/10/07 07:40:21;;;;;;;10.43;2.00;;;10.30;99.90;;;;;;4984718;28;20276;-36
2022/10/07 07:42:47;;;;;;;10.65;2.45;;;10.40;99.90;;;;;;4987145;28;20038;-38
2022/10/07 07:45:14;;;;;;;13.10;2.97;;;10.50;99.90;;;;;;4989821;28;20045;-36
2022/10/07 07:47:40;;;;;;;9.68;1.95;;;10.50;99.90;;;;;;4965628;28;20112;-36
2022/10/07 07:50:06;;;;;;;11.50;2.05;;;10.70;99.90;;;;;;4991830;28;20030;-36
2022/10/07 07:52:33;;;;;;;8.50;2.45;;;10.70;99.90;;;;;;4982110;28;20046;-37
2022/10/07 07:55:01;;;;;;;6.88;1.80;;;10.80;99.90;;;;;;4989476;28;20066;-37
2022/10/07 07:57:28;;;;;;;8.85;1.95;;;10.90;99.90;;;;;;4987337;28;20042;-35
2022/10/07 07:59:55;;;;;;;11.45;2.15;;;10.90;99.90;;;;;;4987996;28;20070;-36
2022/10/07 08:02:22;;;;;;;8.43;2.08;;;11.00;99.90;;;;;;4990833;28;20495;-35
2022/10/07 08:04:48;;;;;;;8.88;1.95;;;11.10;99.90;;;;;;4989235;28;20047;-35
2022/10/07 08:07:13;;;;;;;6.13;2.05;;;11.10;99.90;;;;;;4985872;28;20094;-36
2022/10/07 08:09:39;;;;;;;5.95;1.63;;;11.10;99.90;;;;;;4990886;28;20081;-35
2022/10/07 08:12:06;;;;;;;8.68;1.88;;;11.20;99.90;;;;;;4973068;28;20050;-35
2022/10/07 08:14:32;;;;;;;8.20;2.25;;;11.30;99.90;;;;;;4988217;28;20046;-35
2022/10/07 08:16:58;;;;;;;11.70;3.03;;;11.30;99.90;;;;;;4988374;28;20231;-34
2022/10/07 08:19:28;;;;;;;10.25;2.20;;;11.50;99.90;;;;;;4989644;28;20618;-35
2022/10/07 08:21:54;;;;;;;7.53;2.30;;;11.60;99.90;;;;;;4985870;28;20589;-36
2022/10/07 08:24:21;;;;;;;9.10;1.58;;;11.70;99.90;;;;;;4987429;28;20392;-35
2022/10/07 08:26:47;;;;;;;11.80;2.22;;;11.70;99.90;;;;;;4988836;28;20038;-36
2022/10/07 08:29:14;;;;;;;10.02;1.60;;;11.90;99.90;;;;;;4987825;28;20480;-35
2022/10/07 08:31:41;;;;;;;8.32;1.98;;;12.00;99.90;;;;;;4990859;28;20074;-35
2022/10/07 08:34:08;;;;;;;8.40;1.65;;;12.20;99.90;;;;;;4987283;28;20100;-35
2022/10/07 08:36:33;;;;;;;9.52;2.47;;;12.30;99.90;;;;;;4986072;28;20133;-34
2022/10/07 08:39:00;;;;;;;9.25;1.20;;;12.50;99.90;;;;;;4989271;28;20121;-35
2022/10/07 08:41:49;;;;;;;9.60;1.38;;;12.80;99.90;;;;;;4987999;28;20093;-34
2022/10/07 08:44:22;;;;;;;9.00;1.40;;;12.90;99.90;;;;;;4984389;28;20484;-34
2022/10/07 08:46:56;;;;;;;7.72;1.55;;;13.00;99.90;;;;;;4988309;28;20491;-33
2022/10/07 08:49:55;;;;;;;8.60;1.30;;;13.10;99.90;;;;;;4989196;28;20480;-34
2022/10/07 08:52:58;;;;;;;7.07;1.42;;;13.20;99.90;;;;;;4984017;28;20030;-33
2022/10/07 08:55:30;;;;;;;8.32;0.90;;;13.30;99.90;;;;;;4936364;28;20132;-33
2022/10/07 08:58:04;;;;;;;9.55;1.30;;;13.30;99.90;;;;;;4986005;28;20092;-35
2022/10/07 09:00:43;;;;;;;5.47;1.40;;;13.50;99.90;;;;;;4986061;28;20071;-36
2022/10/07 09:03:23;;;;;;;10.45;1.30;;;13.60;99.90;;;;;;4988531;28;20161;-41
2022/10/07 09:05:49;;;;;;;7.00;1.23;;;13.70;99.90;;;;;;4987361;28;20379;-37
2022/10/07 09:08:27;;;;;;;7.55;1.27;;;13.90;99.90;;;;;;4987803;28;20535;-37
2022/10/07 09:10:55;;;;;;;7.00;1.23;;;14.00;99.90;;;;;;4987393;28;20038;-37
2022/10/07 09:13:28;;;;;;;7.55;1.38;;;14.10;99.90;;;;;;4988869;28;20086;-37
2022/10/07 09:16:10;;;;;;;10.77;1.58;;;14.30;99.90;;;;;;4983491;28;20518;-36
2022/10/07 09:18:44;;;;;;;8.18;1.13;;;14.50;99.90;;;;;;4987889;28;20121;-37
2022/10/07 09:21:26;;;;;;;8.50;1.25;;;14.60;99.90;;;;;;4980654;28;20042;-36
2022/10/07 09:23:55;;;;;;;13.65;1.95;;;14.60;99.90;;;;;;4978511;28;20085;-37
2022/10/07 09:26:21;;;;;;;8.90;1.25;;;14.60;99.90;;;;;;4978947;28;20038;-37
2022/10/07 09:28:48;;;;;;;7.07;1.70;;;14.70;99.90;;;;;;4983075;28;20484;-38
2022/10/07 09:31:15;;;;;;;11.05;1.60;;;14.90;99.90;;;;;;4983633;28;20100;-38
2022/10/07 09:33:44;;;;;;;8.13;1.33;;;15.00;99.90;;;;;;4987001;28;20175;-38
2022/10/07 09:36:12;;;;;;;7.07;1.38;;;15.10;99.90;;;;;;4985298;28;20587;-38
2022/10/07 09:38:40;;;;;;;9.13;1.95;;;15.10;99.90;;;;;;4984438;28;20042;-38
2022/10/07 09:41:30;;;;;;;8.43;1.25;;;15.10;99.90;;;;;;4984010;28;20058;-39
2022/10/07 09:44:01;;;;;;;8.77;1.52;;;15.10;99.90;;;;;;4968184;28;20053;-38
2022/10/07 09:46:34;;;;;;;8.73;1.27;;;15.10;99.90;;;;;;4984653;28;20039;-36
2022/10/07 09:49:03;;;;;;;11.75;1.50;;;15.10;99.90;;;;;;4987869;28;20038;-38
2022/10/07 09:51:31;;;;;;;5.50;1.38;;;15.10;99.90;;;;;;4981653;28;20046;-37
2022/10/07 09:54:17;;;;;;;6.13;1.38;;;15.10;99.90;;;;;;4980088;28;20903;-35
2022/10/07 09:56:45;;;;;;;7.25;1.27;;;15.10;99.50;;;;;;4982954;28;20327;-35
2022/10/07 09:59:30;;;;;;;10.40;1.42;;;15.20;99.90;;;;;;4986330;28;20045;-35
2022/10/07 10:02:18;;;;;;;12.20;1.38;;;15.20;99.90;;;;;;4983789;28;20038;-35
2022/10/07 10:04:51;;;;;;;7.68;0.80;;;15.40;99.90;;;;;;4987967;28;20507;-36
2022/10/07 10:07:31;;;;;;;5.32;0.93;;;15.60;99.90;;;;;;4984604;28;20042;-35
2022/10/07 10:10:02;;;;;;;9.35;1.10;;;15.90;99.50;;;;;;4984757;28;20730;-34
2022/10/07 10:12:32;;;;;;;5.15;1.10;;;16.00;99.20;;;;;;4986892;28;20046;-38
2022/10/07 10:14:59;;;;;;;13.23;1.85;;;16.20;98.50;;;;;;4982333;28;20051;-38
2022/10/07 10:17:27;;;;;;;9.30;1.33;;;16.20;97.90;;;;;;4983425;28;20080;-37
2022/10/07 10:19:54;;;;;;;10.73;1.60;;;16.20;97.60;;;;;;4984738;28;20046;-37
2022/10/07 10:22:29;;;;;;;10.88;1.58;;;16.40;97.90;;;;;;4982029;28;20101;-37
2022/10/07 10:28:16;;;;;;;13.18;1.35;;;16.70;97.30;;;;;;4983589;28;20054;-37
2022/10/07 10:30:55;;;;;;;6.57;1.40;;;16.80;96.40;;;;;;4986939;28;20065;-35
2022/10/07 10:33:41;;;;;;;9.77;1.20;;;16.90;96.70;;;;;;4982748;28;20395;-35
2022/10/07 10:36:17;;;;;;;8.07;1.70;;;17.00;95.60;;;;;;4980846;28;20138;-35
2022/10/07 10:39:02;;;;;;;9.35;1.70;;;17.00;95.10;;;;;;4987497;28;20053;-35
2022/10/07 10:41:44;;;;;;;11.63;1.73;;;17.10;95.90;;;;;;4985589;28;20061;-36
2022/10/07 10:44:41;;;;;;;10.87;1.80;;;16.90;95.90;;;;;;4985064;28;20422;-35
2022/10/07 10:47:38;;;;;;;6.00;1.55;;;16.80;95.60;;;;;;4974284;28;20496;-35
2022/10/07 10:50:09;;;;;;;10.13;1.38;;;16.70;95.20;;;;;;4985759;28;20046;-35
2022/10/07 10:52:51;;;;;;;8.70;1.80;;;16.60;96.20;;;;;;4983589;28;20044;-35
2022/10/07 10:55:32;;;;;;;11.07;2.05;;;16.40;96.80;;;;;;4982546;28;20046;-35
2022/10/07 10:58:43;;;;;;;9.32;1.35;;;16.40;96.90;;;;;;4979705;28;20090;-35
2022/10/07 11:01:27;;;;;;;11.77;2.17;;;16.30;97.40;;;;;;4954237;28;20582;-35
2022/10/07 11:04:08;;;;;;;7.97;1.35;;;16.30;97.60;;;;;;4981906;28;20555;-35
2022/10/07 11:06:37;;;;;;;7.03;1.27;;;16.30;97.90;;;;;;4983839;28;20043;-35
2022/10/07 11:09:04;;;;;;;8.32;1.13;;;16.20;97.60;;;;;;4979526;28;20528;-35
2022/10/07 11:11:37;;;;;;;7.78;1.10;;;16.20;97.90;;;;;;4990652;28;20052;-35
2022/10/07 11:14:09;;;;;;;10.60;1.15;;;16.30;97.80;;;;;;4986240;28;20065;-34
2022/10/07 11:16:54;;;;;;;9.75;1.55;;;16.40;97.30;;;;;;4989463;28;20042;-35
2022/10/07 11:19:40;;;;;;;8.38;2.13;;;16.70;96.70;;;;;;4990382;28;20070;-35
2022/10/07 11:22:15;;;;;;;6.57;1.80;;;17.00;95.90;;;;;;4987533;28;20113;-35
2022/10/07 11:24:53;;;;;;;8.93;0.73;;;17.10;95.70;;;;;;4981388;28;20046;-34
2022/10/07 11:27:32;;;;;;;11.90;1.75;;;17.20;95.00;;;;;;4989146;28;20412;-34
2022/10/07 11:30:18;;;;;;;12.07;2.33;;;17.30;94.30;;;;;;4981651;28;20113;-34
2022/10/07 11:32:48;;;;;;;7.50;1.05;;;17.40;94.40;;;;;;4988521;28;20526;-37
2022/10/07 11:35:58;;;;;;;8.30;1.02;;;17.60;94.20;;;;;;4981307;28;20905;-36
2022/10/07 11:38:30;;;;;;;7.95;1.40;;;17.70;93.20;;;;;;4922186;29;20521;-37
2022/10/07 11:41:17;;;;;;;5.63;1.03;;;17.90;92.70;;;;;;4973524;28;20082;-36
2022/10/07 11:43:52;;;;;;;6.90;0.80;;;18.10;90.90;;;;;;4981487;28;20583;-35
2022/10/07 11:46:26;;;;;;;5.97;1.20;;;18.00;90.60;;;;;;4983749;28;20587;-37
2022/10/07 11:49:30;;;;;;;3.45;0.98;;;17.80;90.20;;;;;;4980985;28;20042;-36
2022/10/07 11:52:01;;;;;;;6.50;1.30;;;17.70;90.10;;;;;;4986645;28;20039;-36
2022/10/07 11:54:36;;;;;;;6.28;0.90;;;17.60;89.80;;;;;;4991270;28;20517;-43
2022/10/07 11:57:03;;;;;;;7.65;1.33;;;17.60;89.80;;;;;;4987626;28;20108;-48
2022/10/07 11:59:49;;;;;;;6.18;0.60;;;17.50;87.90;;;;;;4986383;28;20672;-36
2022/10/07 12:02:44;;;;;;;5.05;1.30;;;17.40;87.40;;;;;;4988001;28;20487;-38
2022/10/07 12:05:35;;;;;;;5.07;0.90;;;17.40;87.80;;;;;;4981798;28;20397;-36
2022/10/07 12:08:22;;;;;;;6.35;0.75;;;17.30;89.40;;;;;;4985793;28;20180;-36
2022/10/07 12:10:52;;;;;;;3.95;0.95;;;17.40;89.60;;;;;;4972217;28;20791;-36
2022/10/07 12:13:19;;;;;;;5.55;1.15;;;17.40;89.70;;;;;;4991314;28;20495;-42
2022/10/07 12:15:46;;;;;;;6.18;1.02;;;17.40;89.10;;;;;;4988829;28;20050;-36
2022/10/07 12:18:14;;;;;;;8.40;1.00;;;17.30;88.20;;;;;;4988724;28;20077;-36
2022/10/07 12:20:45;;;;;;;6.43;1.02;;;17.30;89.00;;;;;;4986694;28;20054;-36
2022/10/07 12:23:20;;;;;;;10.63;1.55;;;17.20;89.40;;;;;;4984225;28;20614;-36
2022/10/07 12:25:50;;;;;;;6.20;0.90;;;17.20;90.10;;;;;;4989125;28;20041;-38
2022/10/07 12:28:33;;;;;;;11.50;1.08;;;17.20;90.40;;;;;;4988136;28;20510;-36
2022/10/07 12:31:03;;;;;;;10.52;1.23;;;17.20;90.80;;;;;;4990194;28;20558;-37
2022/10/07 12:33:42;;;;;;;6.72;1.00;;;17.20;91.00;;;;;;4989414;28;20038;-38
2022/10/07 12:36:28;;;;;;;5.32;1.05;;;17.30;90.30;;;;;;4991813;28;20497;-35
2022/10/07 12:41:24;;;;;;;7.53;0.93;;;17.40;90.00;;;;;;4985798;28;20197;-34
2022/10/07 12:44:05;;;;;;;6.45;1.15;;;17.30;89.50;;;;;;4986072;28;20053;-35
2022/10/07 12:47:09;;;;;;;8.23;1.10;;;17.30;88.70;;;;;;4980938;28;20043;-35
2022/10/07 12:49:39;;;;;;;5.63;1.10;;;17.40;90.20;;;;;;4987982;28;20034;-35
2022/10/07 12:52:33;;;;;;;8.52;0.90;;;17.80;90.00;;;;;;4991599;28;20538;-37
2022/10/07 12:55:01;;;;;;;7.05;1.20;;;18.40;86.50;;;;;;4976428;28;20512;-38
2022/10/07 12:57:34;;;;;;;6.68;0.88;;;18.70;82.10;;;;;;4987493;28;20042;-38
2022/10/07 12:59:59;;;;;;;;;;;18.80;80.40;;;;;;4990168;28;20039;-37
2022/10/07 13:02:51;;;;;;;6.43;1.10;;;18.70;79.50;;;;;;4984144;28;19929;-43
2022/10/07 13:05:38;;;;;;;7.53;0.80;;;18.80;82.90;;;;;;4985621;28;20080;-37
2022/10/07 13:08:43;;;;;;;6.65;0.70;;;19.10;81.70;;;;;;4983583;28;20460;-38
2022/10/07 13:11:34;;;;;;;8.93;1.10;;;19.00;79.70;;;;;;4985109;28;20042;-36
2022/10/07 13:14:13;;;;;;;5.20;0.75;;;18.70;81.50;;;;;;4987245;28;20048;-36
2022/10/07 13:17:16;;;;;;;6.07;1.15;;;18.50;82.50;;;;;;4988154;28;20046;-38
2022/10/07 13:19:48;;;;;;;;;;;18.20;80.60;;;;;;4987989;28;20045;-37
2022/10/07 13:22:17;;;;;;;2.83;0.57;;;18.30;82.90;;;;;;4986374;28;20040;-38
2022/10/07 13:24:50;;;;;;;7.70;0.75;;;18.50;82.50;;;;;;4987978;28;20512;-38
2022/10/07 13:27:25;;;;;;;5.65;0.70;;;18.80;80.90;;;;;;4984836;28;20050;-39
2022/10/07 13:29:52;;;;;;;7.80;1.10;;;19.00;79.40;;;;;;4987776;28;20065;-36
2022/10/07 13:32:23;;;;;;;4.15;0.75;;;18.90;77.90;;;;;;4987653;28;20046;-36